Time;durP1;ratioP1;P1;durP2;ratioP2;P2;SDS_P1;SDS_P2;PMS_P1;PMS_P2;Temp;Humidity;BMP_temperature;BMP_pressure;BME280_temperature;BME280_humidity;BME280_pressure;Samples;Min_cycle;Max_cycle;Signal;HPM_P1;HPM_P2
2022/04/22 00:01:28;;;;;;;43.53;24.20;;;10.70;99.90;;;;;;5088863;28;20017;-62
2022/04/22 00:03:55;;;;;;;51.63;30.17;;;10.60;99.90;;;;;;5073470;28;20052;-62
2022/04/22 00:06:21;;;;;;;53.45;32.90;;;10.60;99.90;;;;;;5073705;28;20435;-62
2022/04/22 00:08:47;;;;;;;57.45;31.35;;;10.50;99.90;;;;;;5073654;28;20021;-62
2022/04/22 00:11:32;;;;;;;50.13;29.50;;;10.50;99.90;;;;;;5093520;28;20482;-62
2022/04/22 00:14:02;;;;;;;98.75;42.42;;;10.50;99.90;;;;;;5093793;28;20036;-62
2022/04/22 00:16:32;;;;;;;109.18;45.42;;;10.50;99.90;;;;;;5093831;28;20051;-62
2022/04/22 00:18:59;;;;;;;89.15;37.50;;;10.40;99.90;;;;;;5097165;28;20417;-62
2022/04/22 00:21:26;;;;;;;76.35;35.28;;;10.40;99.90;;;;;;5097290;28;20052;-62
2022/04/22 00:23:53;;;;;;;75.88;37.15;;;10.40;99.90;;;;;;5097114;28;20032;-62
2022/04/22 00:26:19;;;;;;;73.70;36.05;;;10.40;99.90;;;;;;5097372;28;20107;-62
2022/04/22 00:28:45;;;;;;;56.63;30.95;;;10.30;99.90;;;;;;5097413;28;20048;-62
2022/04/22 00:31:11;;;;;;;65.82;33.90;;;10.30;99.90;;;;;;5097143;28;20024;-62
2022/04/22 00:33:37;;;;;;;56.60;32.20;;;10.20;99.90;;;;;;5097355;28;20059;-62
2022/04/22 00:36:03;;;;;;;61.53;33.97;;;10.20;99.90;;;;;;5097026;28;20032;-62
2022/04/22 00:38:29;;;;;;;57.55;31.95;;;10.20;99.90;;;;;;5097370;28;20081;-62
2022/04/22 00:40:56;;;;;;;54.88;32.00;;;10.20;99.90;;;;;;5097127;28;20035;-62
2022/04/22 00:43:24;;;;;;;61.42;34.75;;;10.10;99.90;;;;;;5097265;28;20028;-62
2022/04/22 00:45:51;;;;;;;61.95;36.38;;;10.10;99.90;;;;;;5097024;28;20042;-62
2022/04/22 00:48:18;;;;;;;56.85;32.85;;;10.10;99.90;;;;;;5097076;28;20393;-62
2022/04/22 00:50:44;;;;;;;55.17;36.33;;;10.10;99.90;;;;;;5096909;28;20054;-62
2022/04/22 00:53:11;;;;;;;62.25;37.40;;;10.10;99.90;;;;;;5096881;28;20063;-62
2022/04/22 00:55:40;;;;;;;77.70;41.38;;;10.10;99.90;;;;;;5097029;28;20032;-62
2022/04/22 00:58:08;;;;;;;60.70;37.03;;;10.10;99.90;;;;;;5097018;28;20028;-62
2022/04/22 01:00:34;;;;;;;63.65;36.83;;;10.10;99.90;;;;;;5096837;28;20036;-62
2022/04/22 01:03:00;;;;;;;81.68;41.10;;;10.00;99.90;;;;;;5078922;28;20028;-62
2022/04/22 01:10:57;;;;;;;181.38;72.45;;;10.00;99.90;;;;;;5056255;28;20107;-62
2022/04/22 01:13:24;;;;;;;70.10;37.88;;;10.00;99.90;;;;;;5055919;28;20470;-62
2022/04/22 01:15:50;;;;;;;79.60;43.47;;;10.00;99.90;;;;;;5056180;28;20025;-62
2022/04/22 01:18:17;;;;;;;73.03;39.35;;;10.00;99.90;;;;;;5056313;28;20044;-62
2022/04/22 01:20:43;;;;;;;70.85;41.47;;;10.00;99.90;;;;;;5055874;28;20124;-62
2022/04/22 01:23:09;;;;;;;69.07;40.42;;;10.10;99.90;;;;;;5056175;28;20071;-62
2022/04/22 01:25:35;;;;;;;72.80;39.92;;;10.10;99.90;;;;;;5055768;28;20661;-63
2022/04/22 01:28:02;;;;;;;69.40;38.80;;;10.00;99.90;;;;;;5055839;28;20085;-62
2022/04/22 01:30:29;;;;;;;68.32;39.08;;;10.10;99.90;;;;;;5055807;28;20033;-62
2022/04/22 01:32:56;;;;;;;72.65;41.58;;;10.10;99.90;;;;;;5055891;28;20028;-62
2022/04/22 01:35:24;;;;;;;72.22;40.35;;;10.10;99.90;;;;;;5055741;28;20441;-62
2022/04/22 01:37:50;;;;;;;107.35;51.38;;;10.10;99.90;;;;;;5055644;28;20028;-62
2022/04/22 01:40:17;;;;;;;114.93;52.33;;;10.00;99.90;;;;;;5055990;28;20037;-62
2022/04/22 01:42:43;;;;;;;97.80;47.00;;;10.10;99.90;;;;;;5055730;28;20505;-62
2022/04/22 01:45:12;;;;;;;85.85;45.65;;;10.10;99.90;;;;;;5055383;28;20517;-62
2022/04/22 01:47:38;;;;;;;78.93;43.30;;;10.10;99.90;;;;;;5055580;28;20136;-62
2022/04/22 01:50:05;;;;;;;70.85;39.53;;;10.10;99.90;;;;;;5055503;28;20065;-62
2022/04/22 01:52:31;;;;;;;62.95;38.22;;;10.20;99.90;;;;;;5055478;28;20028;-62
2022/04/22 01:54:57;;;;;;;61.92;36.78;;;10.20;99.90;;;;;;5055322;28;20076;-62
2022/04/22 01:57:23;;;;;;;68.50;38.83;;;10.20;99.90;;;;;;5055360;28;20033;-62
2022/04/22 01:59:49;;;;;;;63.28;35.60;;;10.20;99.90;;;;;;5037612;28;20025;-62
2022/04/22 02:02:17;;;;;;;56.30;31.65;;;10.20;99.90;;;;;;5066791;28;20111;-62
2022/04/22 02:04:44;;;;;;;53.90;31.27;;;10.20;99.90;;;;;;5075264;28;20032;-62
2022/04/22 02:07:10;;;;;;;52.95;30.85;;;10.20;99.90;;;;;;5075128;28;20017;-61
2022/04/22 02:09:36;;;;;;;57.85;35.67;;;10.20;99.90;;;;;;5081788;28;20035;-62
2022/04/22 02:12:04;;;;;;;63.50;37.60;;;10.20;99.90;;;;;;5095247;28;20036;-62
2022/04/22 02:14:30;;;;;;;57.70;34.92;;;10.20;99.90;;;;;;5095263;28;20099;-62
2022/04/22 02:16:56;;;;;;;49.80;30.98;;;10.30;99.90;;;;;;5095342;28;20489;-62
2022/04/22 02:19:22;;;;;;;53.03;30.27;;;10.20;99.90;;;;;;5095282;28;20028;-62
2022/04/22 02:21:51;;;;;;;56.63;31.98;;;10.20;99.90;;;;;;5094863;28;20055;-62
2022/04/22 02:24:18;;;;;;;60.75;32.58;;;10.30;99.90;;;;;;5095068;28;20020;-62
2022/04/22 02:29:29;;;;;;;56.97;32.88;;;10.30;99.90;;;;;;5094945;28;20024;-62
2022/04/22 02:31:54;;;;;;;60.58;33.88;;;10.30;99.90;;;;;;5094898;28;20030;-62
2022/04/22 02:34:21;;;;;;;56.13;31.75;;;10.30;99.90;;;;;;5095070;28;20031;-62
2022/04/22 02:36:48;;;;;;;57.15;33.55;;;10.30;99.90;;;;;;5094976;28;20625;-62
2022/04/22 02:39:14;;;;;;;57.92;32.88;;;10.20;99.90;;;;;;5094750;28;20016;-62
2022/04/22 02:47:09;;;;;;;58.83;31.00;;;10.30;99.90;;;;;;5094672;28;20024;-62
2022/04/22 02:49:35;;;;;;;55.35;30.83;;;10.30;99.90;;;;;;5094741;28;20081;-62
2022/04/22 02:52:02;;;;;;;50.42;27.80;;;10.30;99.90;;;;;;5094842;28;20024;-62
2022/04/22 02:54:31;;;;;;;43.30;25.20;;;10.30;99.90;;;;;;5094867;28;20040;-62
2022/04/22 02:57:00;;;;;;;43.05;25.17;;;10.20;99.90;;;;;;5094565;28;20062;-62
2022/04/22 02:59:28;;;;;;;44.90;26.50;;;10.30;99.90;;;;;;5094596;28;20039;-63
2022/04/22 03:01:55;;;;;;;61.80;35.50;;;10.30;99.90;;;;;;5085602;28;20070;-62
2022/04/22 03:04:21;;;;;;;89.80;49.78;;;10.20;99.90;;;;;;5074297;28;20033;-63
2022/04/22 03:06:48;;;;;;;142.50;74.30;;;10.20;99.90;;;;;;5074155;28;20494;-63
2022/04/22 03:09:14;;;;;;;164.05;84.15;;;10.10;99.90;;;;;;5081361;28;20031;-63
2022/04/22 03:11:40;;;;;;;154.07;81.45;;;10.10;99.90;;;;;;5094444;28;20020;-62
2022/04/22 03:14:06;;;;;;;167.07;88.93;;;10.10;99.90;;;;;;5094599;28;20032;-62
2022/04/22 03:16:33;;;;;;;165.93;90.95;;;10.10;99.90;;;;;;5094410;28;20032;-63
2022/04/22 03:18:59;;;;;;;170.95;89.22;;;10.10;99.90;;;;;;5094445;28;20504;-62
2022/04/22 03:21:26;;;;;;;160.05;89.75;;;10.00;99.90;;;;;;5094203;28;20146;-63
2022/04/22 03:23:52;;;;;;;150.63;82.38;;;10.00;99.90;;;;;;5094286;28;20115;-62
2022/04/22 03:26:19;;;;;;;161.15;87.57;;;10.00;99.90;;;;;;5094274;28;20028;-62
2022/04/22 03:28:47;;;;;;;172.85;92.13;;;10.00;99.90;;;;;;5094520;28;20035;-62
2022/04/22 03:31:13;;;;;;;158.90;88.97;;;10.00;99.90;;;;;;5094264;28;20074;-62
2022/04/22 03:33:39;;;;;;;161.25;87.60;;;9.90;99.90;;;;;;5094303;28;20422;-63
2022/04/22 03:36:05;;;;;;;144.30;80.95;;;9.90;99.90;;;;;;5094087;28;20028;-62
2022/04/22 03:38:31;;;;;;;141.55;77.72;;;9.80;99.90;;;;;;5094365;28;20083;-63
2022/04/22 03:40:57;;;;;;;107.95;62.60;;;9.80;99.90;;;;;;5094101;28;20083;-62
2022/04/22 03:43:25;;;;;;;111.25;63.22;;;9.90;99.90;;;;;;5094079;28;20024;-62
2022/04/22 03:45:51;;;;;;;121.13;69.53;;;9.80;99.90;;;;;;5094047;28;20028;-62
2022/04/22 03:48:17;;;;;;;110.53;63.45;;;9.80;99.90;;;;;;5094095;28;20027;-62
2022/04/22 03:50:43;;;;;;;120.53;64.70;;;9.80;99.90;;;;;;5094154;28;20485;-62
2022/04/22 03:53:11;;;;;;;115.47;66.03;;;9.70;99.90;;;;;;5096230;28;20024;-62
2022/04/22 03:55:39;;;;;;;113.18;62.17;;;9.70;99.90;;;;;;5097936;28;20115;-62
2022/04/22 03:58:11;;;;;;;84.88;45.70;;;9.60;99.90;;;;;;5097886;28;20036;-62
2022/04/22 04:00:46;;;;;;;80.40;46.13;;;9.60;99.90;;;;;;5097886;28;20120;-63
2022/04/22 04:03:19;;;;;;;99.13;52.95;;;9.50;99.90;;;;;;5078239;28;20417;-62
2022/04/22 04:05:50;;;;;;;97.57;53.40;;;9.50;99.90;;;;;;5077430;28;20024;-62
2022/04/22 04:08:17;;;;;;;;;;;9.50;99.90;;;;;;5078028;28;20421;-62
2022/04/22 04:15:57;;;;;;;66.63;40.58;;;9.30;99.90;;;;;;5097604;28;20030;-62
2022/04/22 04:16:25;;;;;;;70.57;41.47;;;9.30;99.90;;;;;;5097014;28;20490;-62
2022/04/22 04:18:51;;;;;;;86.57;48.13;;;9.20;99.90;;;;;;5097785;28;20077;-62
2022/04/22 04:24:02;;;;;;;88.55;47.58;;;9.00;99.90;;;;;;5097441;28;20051;-62
2022/04/22 04:26:28;;;;;;;84.97;46.42;;;9.20;99.90;;;;;;5097247;28;20038;-63
2022/04/22 04:28:54;;;;;;;83.78;47.30;;;9.20;99.90;;;;;;5097458;28;20020;-63
2022/04/22 04:31:20;;;;;;;94.90;50.00;;;9.10;99.90;;;;;;5097304;28;20052;-63
2022/04/22 04:33:49;;;;;;;98.38;53.88;;;9.20;99.90;;;;;;5097234;28;20397;-63
2022/04/22 04:36:15;;;;;;;108.72;56.47;;;9.20;99.90;;;;;;5097218;28;20058;-63
2022/04/22 04:38:42;;;;;;;99.15;59.88;;;9.10;99.90;;;;;;5097012;28;20049;-62
2022/04/22 04:41:09;;;;;;;113.07;64.78;;;9.10;99.90;;;;;;5097436;28;20032;-62
2022/04/22 04:43:38;;;;;;;102.38;53.92;;;9.20;99.90;;;;;;5097409;28;20031;-62
2022/04/22 04:46:05;;;;;;;87.70;50.85;;;9.20;99.90;;;;;;5097066;28;20039;-62
2022/04/22 04:48:31;;;;;;;91.22;46.67;;;9.20;99.90;;;;;;5096990;28;20035;-62
2022/04/22 04:50:57;;;;;;;73.63;40.30;;;9.30;99.90;;;;;;5096754;28;20020;-62
2022/04/22 04:53:23;;;;;;;68.68;41.22;;;9.40;99.90;;;;;;5096865;28;20103;-63
2022/04/22 04:55:53;;;;;;;117.78;65.15;;;9.40;99.90;;;;;;5096968;28;20107;-63
2022/04/22 04:58:21;;;;;;;88.05;51.63;;;9.50;99.90;;;;;;5096831;28;20024;-62
2022/04/22 05:00:48;;;;;;;108.25;59.53;;;9.60;99.90;;;;;;5096657;28;20085;-63
2022/04/22 05:03:14;;;;;;;117.32;62.92;;;9.70;99.90;;;;;;5076378;28;20021;-63
2022/04/22 05:05:41;;;;;;;122.38;66.82;;;9.90;99.90;;;;;;5076326;28;20036;-63
2022/04/22 05:08:07;;;;;;;110.43;63.30;;;10.00;99.90;;;;;;5076279;28;20024;-62
2022/04/22 05:10:35;;;;;;;115.10;62.97;;;10.10;99.90;;;;;;5090736;28;20428;-62
2022/04/22 05:13:03;;;;;;;110.45;58.35;;;10.20;99.90;;;;;;5090205;28;20021;-62
2022/04/22 05:15:30;;;;;;;95.75;55.55;;;10.40;99.90;;;;;;5058283;28;20050;-63
2022/04/22 05:17:58;;;;;;;94.13;55.00;;;10.50;99.90;;;;;;5068948;28;20029;-63
2022/04/22 05:20:25;;;;;;;84.85;46.42;;;10.50;99.90;;;;;;5065359;28;20073;-63
2022/04/22 05:22:55;;;;;;;89.18;51.75;;;10.50;99.90;;;;;;5075123;28;20107;-63
2022/04/22 05:25:22;;;;;;;95.72;51.58;;;10.70;99.90;;;;;;5069464;28;20516;-63
2022/04/22 05:27:48;;;;;;;86.20;49.00;;;10.90;99.90;;;;;;5075339;28;20029;-63
2022/04/22 05:33:03;;;;;;;94.75;53.47;;;11.20;99.90;;;;;;5068055;28;20562;-62
2022/04/22 05:35:29;;;;;;;93.68;53.20;;;11.30;99.90;;;;;;5066425;28;20052;-63
2022/04/22 05:38:03;;;;;;;94.05;53.88;;;11.50;99.90;;;;;;5072428;28;20021;-63
2022/04/22 05:40:33;;;;;;;81.15;48.38;;;11.70;99.90;;;;;;5060939;28;20024;-63
2022/04/22 05:43:00;;;;;;;74.72;45.40;;;11.90;99.90;;;;;;5072661;28;20035;-63
2022/04/22 05:45:27;;;;;;;78.55;44.08;;;12.20;99.90;;;;;;5068616;28;20451;-63
2022/04/22 05:47:54;;;;;;;72.97;44.22;;;12.30;99.90;;;;;;5074637;28;20078;-63
2022/04/22 05:50:21;;;;;;;68.57;38.22;;;12.30;99.90;;;;;;5074274;28;20035;-63
2022/04/22 05:52:47;;;;;;;66.65;39.83;;;12.50;99.90;;;;;;5086314;28;20090;-63
2022/04/22 05:55:16;;;;;;;76.68;42.33;;;12.60;99.90;;;;;;5078074;28;20062;-63
2022/04/22 05:57:44;;;;;;;66.00;38.45;;;12.90;99.90;;;;;;5062358;28;20033;-63
2022/04/22 06:00:13;;;;;;;53.33;30.73;;;13.20;99.90;;;;;;5064001;28;20082;-63
2022/04/22 06:02:43;;;;;;;31.30;19.20;;;13.50;99.90;;;;;;5068608;28;20406;-63
2022/04/22 06:05:11;;;;;;;17.48;9.45;;;13.70;99.90;;;;;;5071329;28;20055;-63
2022/04/22 06:07:38;;;;;;;17.23;6.72;;;13.90;99.90;;;;;;5068042;28;20044;-63
2022/04/22 06:12:55;;;;;;;13.95;6.32;;;14.30;99.90;;;;;;5056269;28;20116;-63
2022/04/22 06:15:21;;;;;;;13.90;5.45;;;14.60;99.90;;;;;;5061353;28;20029;-64
2022/04/22 06:17:48;;;;;;;13.77;5.88;;;14.80;99.90;;;;;;5069664;28;20104;-63
2022/04/22 06:20:16;;;;;;;16.67;6.57;;;15.00;99.90;;;;;;5073735;28;20501;-63
2022/04/22 06:22:42;;;;;;;25.10;6.32;;;15.20;99.90;;;;;;5045602;28;20032;-64
2022/04/22 06:25:09;;;;;;;17.58;5.40;;;15.50;99.90;;;;;;5063225;28;20058;-63
2022/04/22 06:27:38;;;;;;;22.63;6.22;;;15.80;99.90;;;;;;5042952;28;20151;-63
2022/04/22 06:30:05;;;;;;;42.35;8.60;;;16.00;99.90;;;;;;5044549;28;20047;-64
2022/04/22 06:32:31;;;;;;;28.52;8.20;;;16.10;99.90;;;;;;5050175;28;20028;-63
2022/04/22 06:34:57;;;;;;;65.80;10.77;;;16.30;99.90;;;;;;5038184;28;20058;-63
2022/04/22 06:37:24;;;;;;;33.40;8.88;;;16.50;99.90;;;;;;5045574;28;20029;-64
2022/04/22 06:48:06;;;;;;;83.93;18.80;;;17.90;99.50;;;;;;5043094;28;20497;-63
2022/04/22 06:50:32;;;;;;;57.17;14.98;;;18.20;99.00;;;;;;5045318;28;20064;-63
2022/04/22 06:52:58;;;;;;;33.55;10.70;;;18.30;98.10;;;;;;5054394;28;20147;-63
2022/04/22 06:55:25;;;;;;;48.15;12.27;;;18.60;97.90;;;;;;5037882;28;20399;-64
2022/04/22 06:57:55;;;;;;;36.88;11.90;;;18.70;96.10;;;;;;5046544;28;20028;-63
2022/04/22 07:00:22;;;;;;;29.10;12.52;;;18.90;93.20;;;;;;5044157;28;20036;-63
2022/04/22 07:02:48;;;;;;;46.70;15.30;;;18.90;91.40;;;;;;5047754;28;20071;-64
2022/04/22 07:05:14;;;;;;;18.70;6.82;;;19.10;90.40;;;;;;5051381;28;20447;-64
2022/04/22 07:07:40;;;;;;;23.05;7.10;;;19.10;76.90;;;;;;5044109;28;20104;-63
2022/04/22 07:10:07;;;;;;;16.75;4.65;;;19.00;78.10;;;;;;5048435;28;20037;-63
2022/04/22 07:12:33;;;;;;;15.05;4.53;;;19.00;71.50;;;;;;5046829;28;20032;-64
2022/04/22 07:15:03;;;;;;;18.45;5.88;;;18.90;68.20;;;;;;5036282;28;20053;-63
2022/04/22 07:17:34;;;;;;;10.27;3.57;;;19.00;72.40;;;;;;5044874;28;20116;-63
2022/04/22 07:20:09;;;;;;;19.88;6.22;;;19.00;68.00;;;;;;5041388;28;20075;-63
2022/04/22 07:22:44;;;;;;;21.15;6.85;;;19.00;68.40;;;;;;5044673;28;20647;-63
2022/04/22 07:25:11;;;;;;;16.95;6.35;;;19.10;71.20;;;;;;5043346;28;20050;-63
2022/04/22 07:27:41;;;;;;;17.95;5.93;;;19.20;67.20;;;;;;5050434;28;20061;-63
2022/04/22 07:30:09;;;;;;;22.10;4.53;;;19.10;66.10;;;;;;5051346;28;20053;-63
2022/04/22 07:32:38;;;;;;;18.25;4.53;;;19.10;70.10;;;;;;5045167;28;20143;-63
2022/04/22 07:35:06;;;;;;;31.48;7.25;;;19.10;67.90;;;;;;5048397;28;20036;-63
2022/04/22 07:37:34;;;;;;;12.18;3.85;;;19.10;69.80;;;;;;5047537;28;20033;-63
2022/04/22 07:40:00;;;;;;;22.35;4.47;;;19.20;67.50;;;;;;5051076;28;20041;-64
2022/04/22 07:42:28;;;;;;;13.98;3.30;;;19.40;65.10;;;;;;5052283;28;20060;-64
2022/04/22 07:47:46;;;;;;;14.65;4.43;;;19.60;66.10;;;;;;5062944;28;20033;-63
2022/04/22 07:50:14;;;;;;;24.42;5.13;;;19.60;63.90;;;;;;5050001;28;20064;-63
2022/04/22 07:52:44;;;;;;;16.58;3.97;;;19.60;65.50;;;;;;5043231;28;20384;-63
2022/04/22 07:55:11;;;;;;;12.13;3.33;;;19.70;65.90;;;;;;5041218;28;20030;-64
2022/04/22 07:57:37;;;;;;;14.50;4.15;;;19.80;63.30;;;;;;5045751;28;20037;-64
2022/04/22 08:00:04;;;;;;;16.38;4.07;;;19.90;65.10;;;;;;5044922;28;20051;-64
2022/04/22 08:02:40;;;;;;;22.92;3.90;;;20.00;61.90;;;;;;5048251;28;20064;-63
2022/04/22 08:05:11;;;;;;;13.80;3.50;;;20.30;66.00;;;;;;5059568;28;20024;-64
2022/04/22 08:07:38;;;;;;;12.25;3.85;;;20.20;60.60;;;;;;5055622;28;20029;-64
2022/04/22 08:10:06;;;;;;;16.40;4.45;;;20.40;61.70;;;;;;5049980;28;20026;-64
2022/04/22 08:12:33;;;;;;;17.20;3.92;;;20.30;60.90;;;;;;5043927;28;20025;-64
2022/04/22 08:15:01;;;;;;;19.38;4.03;;;20.80;63.90;;;;;;5051101;28;20037;-64
2022/04/22 08:17:27;;;;;;;18.52;4.95;;;21.50;81.30;;;;;;5052639;28;20082;-64
2022/04/22 08:19:53;;;;;;;20.90;7.22;;;22.10;57.60;;;;;;5045283;28;20036;-63
2022/04/22 08:22:19;;;;;;;15.35;4.15;;;22.50;60.80;;;;;;5040510;28;20025;-64
2022/04/22 08:24:49;;;;;;;12.38;3.58;;;22.70;55.70;;;;;;5048944;28;20037;-64
2022/04/22 08:27:19;;;;;;;24.60;5.22;;;22.20;52.20;;;;;;5043149;28;20767;-64
2022/04/22 08:29:51;;;;;;;21.50;4.68;;;21.80;54.10;;;;;;5049773;28;20031;-64
2022/04/22 08:32:18;;;;;;;11.65;4.30;;;22.20;61.00;;;;;;5039690;28;20372;-64
2022/04/22 08:34:44;;;;;;;17.77;3.67;;;22.50;54.30;;;;;;5039945;28;20033;-64
2022/04/22 08:37:11;;;;;;;17.20;4.60;;;22.20;53.50;;;;;;5044222;28;20040;-64
2022/04/22 08:39:37;;;;;;;21.33;4.47;;;22.30;56.00;;;;;;5055119;28;20024;-64
2022/04/22 08:42:04;;;;;;;21.48;4.30;;;22.00;53.00;;;;;;5041725;28;20029;-64
2022/04/22 08:44:31;;;;;;;12.70;3.72;;;21.80;53.70;;;;;;5047434;28;20143;-64
2022/04/22 08:52:27;;;;;;;17.08;4.63;;;22.50;49.80;;;;;;5043241;28;20040;-63
2022/04/22 08:54:54;;;;;;;11.75;3.45;;;22.60;55.30;;;;;;5054678;28;20034;-64
2022/04/22 08:57:24;;;;;;;22.02;4.90;;;23.00;49.50;;;;;;5050520;28;20037;-64
2022/04/22 08:59:50;;;;;;;19.27;4.78;;;23.30;50.80;;;;;;5044337;28;20028;-64
2022/04/22 09:02:20;;;;;;;14.85;3.97;;;23.50;50.60;;;;;;5048031;28;20098;-64
2022/04/22 09:04:46;;;;;;;18.20;5.78;;;23.60;47.80;;;;;;5048959;28;20072;-64
2022/04/22 09:07:13;;;;;;;15.80;4.22;;;23.90;50.50;;;;;;5046746;28;20147;-64
2022/04/22 09:09:41;;;;;;;17.08;5.25;;;24.30;47.20;;;;;;5057201;28;20028;-63
2022/04/22 09:12:11;;;;;;;30.75;7.43;;;23.90;47.20;;;;;;5048643;28;20028;-64
2022/04/22 09:14:49;;;;;;;15.93;4.63;;;24.30;49.70;;;;;;5050171;28;20475;-64
2022/04/22 09:17:20;;;;;;;16.98;4.25;;;24.60;48.80;;;;;;5046096;28;20087;-64
2022/04/22 09:19:46;;;;;;;15.25;3.67;;;25.10;46.80;;;;;;5051507;28;20024;-64
2022/04/22 09:22:19;;;;;;;18.02;3.65;;;25.50;47.40;;;;;;5041940;28;20474;-64
2022/04/22 09:25:00;;;;;;;22.00;7.30;;;25.80;47.10;;;;;;5042533;28;20033;-64
2022/04/22 09:27:35;;;;;;;33.05;7.53;;;25.60;45.30;;;;;;5043867;28;20029;-64
2022/04/22 09:30:09;;;;;;;19.65;5.18;;;25.60;43.00;;;;;;5044926;28;20103;-64
2022/04/22 09:32:39;;;;;;;17.02;3.60;;;26.10;46.10;;;;;;5046281;28;20028;-64
2022/04/22 09:35:16;;;;;;;19.17;4.90;;;25.60;42.20;;;;;;5046724;28;20029;-64
2022/04/22 09:43:31;;;;;;;10.95;3.45;;;26.30;40.80;;;;;;5049490;28;20399;-64
2022/04/22 09:45:57;;;;;;;24.15;5.05;;;26.40;40.80;;;;;;5050132;28;20033;-64
2022/04/22 09:48:23;;;;;;;18.67;4.78;;;26.50;40.90;;;;;;5065164;28;20036;-64
2022/04/22 09:50:54;;;;;;;26.17;4.90;;;26.50;41.50;;;;;;5043259;28;20025;-64
2022/04/22 09:53:32;;;;;;;;;;;27.00;41.10;;;;;;5046557;28;20394;-65
2022/04/22 09:56:06;;;;;;;18.85;3.45;;;26.70;38.30;;;;;;5040191;28;19920;-65
2022/04/22 09:58:32;;;;;;;10.18;2.97;;;26.60;38.50;;;;;;5036352;28;20026;-64
2022/04/22 10:01:06;;;;;;;9.70;3.00;;;26.20;38.80;;;;;;5035472;28;20057;-65
2022/04/22 10:03:36;;;;;;;9.50;2.33;;;26.50;39.40;;;;;;5037742;28;20395;-65
2022/04/22 10:06:03;;;;;;;8.02;2.80;;;27.50;40.50;;;;;;5044084;28;20083;-65
2022/04/22 10:08:36;;;;;;;13.00;3.47;;;27.50;37.90;;;;;;5040103;28;20103;-65
2022/04/22 10:11:06;;;;;;;15.55;3.45;;;27.40;35.90;;;;;;5038044;28;20022;-64
2022/04/22 10:13:39;;;;;;;13.85;3.55;;;26.70;36.80;;;;;;5043555;28;20391;-64
2022/04/22 10:16:09;;;;;;;27.67;4.20;;;26.20;37.80;;;;;;5047191;28;20051;-64
2022/04/22 10:18:44;;;;;;;14.18;3.03;;;26.20;39.70;;;;;;5045874;28;20083;-64
2022/04/22 10:21:10;;;;;;;9.77;2.03;;;25.80;38.60;;;;;;5052890;28;20056;-64
2022/04/22 10:23:37;;;;;;;10.00;2.00;;;25.70;38.10;;;;;;5044477;28;20036;-63
2022/04/22 10:26:05;;;;;;;17.02;2.28;;;25.30;37.40;;;;;;5043911;28;20039;-63
2022/04/22 10:28:32;;;;;;;13.63;2.67;;;25.10;37.60;;;;;;5047267;28;20025;-63
2022/04/22 10:31:01;;;;;;;10.68;2.35;;;25.30;38.10;;;;;;5045513;28;20051;-62
2022/04/22 10:33:39;;;;;;;11.57;2.43;;;25.20;38.20;;;;;;5040511;28;20822;-62
2022/04/22 10:36:05;;;;;;;13.48;2.22;;;25.30;38.00;;;;;;5046581;28;20116;-63
2022/04/22 10:38:39;;;;;;;17.13;3.72;;;25.10;38.30;;;;;;5050599;28;20040;-63
2022/04/22 10:41:19;;;;;;;8.57;2.58;;;25.10;40.00;;;;;;5055307;28;20106;-63
2022/04/22 10:49:47;;;;;;;14.70;3.60;;;25.60;37.80;;;;;;5073701;28;20031;-63
2022/04/22 10:52:21;;;;;;;10.93;3.00;;;24.90;39.50;;;;;;5071833;28;20032;-63
2022/04/22 10:54:53;;;;;;;15.75;2.95;;;24.60;40.50;;;;;;5039697;28;20037;-63
2022/04/22 10:57:23;;;;;;;5.72;1.70;;;24.50;40.80;;;;;;5034125;28;20029;-63
2022/04/22 11:00:27;;;;;;;5.88;1.67;;;24.30;40.60;;;;;;5073275;28;20050;-62
2022/04/22 11:03:04;;;;;;;7.82;2.40;;;24.50;41.90;;;;;;5056832;28;20068;-63
2022/04/22 11:05:30;;;;;;;10.13;2.35;;;24.30;41.10;;;;;;5053396;28;20387;-62
2022/04/22 11:07:57;;;;;;;6.30;1.75;;;23.80;41.80;;;;;;5053840;28;20025;-62
2022/04/22 11:10:46;;;;;;;5.25;1.45;;;23.50;42.30;;;;;;5070204;28;20063;-63
2022/04/22 11:13:35;;;;;;;7.47;1.67;;;23.50;43.20;;;;;;5052495;28;20565;-63
2022/04/22 11:16:15;;;;;;;5.65;1.13;;;23.20;43.80;;;;;;5047545;28;20464;-62
2022/04/22 11:18:43;;;;;;;6.00;1.50;;;22.90;44.20;;;;;;5035207;28;20034;-62
2022/04/22 11:21:15;;;;;;;6.45;1.40;;;22.80;44.40;;;;;;5033190;28;20411;-62
2022/04/22 11:23:46;;;;;;;4.88;1.40;;;22.80;45.30;;;;;;5033507;28;20038;-62
2022/04/22 11:26:17;;;;;;;14.35;2.72;;;22.60;46.30;;;;;;5048459;28;20475;-62
2022/04/22 11:28:45;;;;;;;6.40;1.00;;;22.90;47.20;;;;;;5033394;28;20030;-62
2022/04/22 11:31:13;;;;;;;9.25;1.25;;;23.00;45.20;;;;;;5033302;28;20044;-62
2022/04/22 11:34:02;;;;;;;6.18;1.10;;;23.20;45.90;;;;;;5052613;28;20029;-62
2022/04/22 11:36:45;;;;;;;8.50;2.00;;;23.10;45.70;;;;;;5055013;28;20057;-62
2022/04/22 11:39:26;;;;;;;4.53;1.13;;;23.10;45.90;;;;;;5061558;28;20037;-62
2022/04/22 11:41:58;;;;;;;4.55;1.10;;;23.00;46.00;;;;;;5059178;28;20402;-62
2022/04/22 11:44:25;;;;;;;3.85;1.02;;;23.00;46.00;;;;;;5053032;28;20036;-62
2022/04/22 11:46:52;;;;;;;9.95;2.38;;;22.90;46.80;;;;;;5058113;28;20017;-61
2022/04/22 11:49:20;;;;;;;15.95;2.65;;;22.60;46.00;;;;;;5065704;28;20029;-62
2022/04/22 11:51:53;;;;;;;11.80;1.95;;;22.50;45.80;;;;;;5073530;28;20048;-63
2022/04/22 11:54:23;;;;;;;20.83;3.13;;;22.30;46.10;;;;;;5072935;28;20423;-61
2022/04/22 11:56:50;;;;;;;23.98;3.35;;;21.90;47.20;;;;;;5066931;28;20083;-62
2022/04/22 11:59:22;;;;;;;10.57;2.53;;;21.90;48.40;;;;;;5067192;28;20353;-62
2022/04/22 12:10:12;;;;;;;15.63;2.80;;;21.40;51.10;;;;;;5047077;28;20053;-62
2022/04/22 12:12:49;;;;;;;20.25;2.67;;;21.20;51.70;;;;;;5067403;28;20537;-61
2022/04/22 12:15:19;;;;;;;11.38;2.47;;;21.10;52.00;;;;;;5056298;28;20056;-61
2022/04/22 12:17:46;;;;;;;10.38;3.13;;;21.00;52.40;;;;;;5056907;28;20037;-61
2022/04/22 12:20:13;;;;;;;19.83;3.33;;;20.90;53.70;;;;;;5055310;28;20037;-61
2022/04/22 12:22:39;;;;;;;16.33;2.50;;;20.70;55.90;;;;;;5056435;28;20033;-61
2022/04/22 12:25:13;;;;;;;13.07;1.83;;;20.20;64.90;;;;;;5056379;28;20390;-62
2022/04/22 12:27:40;;;;;;;15.35;3.72;;;19.50;63.30;;;;;;5056605;28;20053;-61
2022/04/22 12:30:12;;;;;;;16.92;4.13;;;19.20;65.90;;;;;;5049850;28;20111;-61
2022/04/22 12:32:39;;;;;;;56.70;10.18;;;19.20;82.60;;;;;;5054368;28;20112;-62
2022/04/22 12:35:11;;;;;;;32.63;6.63;;;18.50;93.50;;;;;;5056278;28;20024;-62
2022/04/22 12:37:46;;;;;;;17.60;3.53;;;18.10;99.90;;;;;;5056080;28;20041;-61
2022/04/22 12:40:14;;;;;;;24.25;4.93;;;17.60;99.90;;;;;;5056061;28;20040;-62
2022/04/22 12:42:40;;;;;;;26.40;6.07;;;17.00;99.90;;;;;;5062696;28;20032;-61
2022/04/22 12:54:06;;;;;;;25.77;5.07;;;15.50;99.90;;;;;;5056474;28;20029;-62
2022/04/22 12:56:34;;;;;;;22.67;5.22;;;15.30;99.90;;;;;;5057194;28;20102;-62
2022/04/22 12:59:03;;;;;;;23.35;5.70;;;15.10;99.90;;;;;;5055623;28;20550;-62
2022/04/22 13:01:46;;;;;;;34.13;6.57;;;15.10;99.90;;;;;;5057987;28;20498;-62
2022/04/22 13:04:23;;;;;;;20.63;4.93;;;14.80;99.90;;;;;;5059775;28;20038;-62
2022/04/22 13:06:50;;;;;;;21.08;4.88;;;15.00;99.90;;;;;;5058723;28;20025;-62
2022/04/22 13:09:18;;;;;;;26.45;5.50;;;14.60;99.90;;;;;;5062483;28;20021;-62
2022/04/22 13:11:44;;;;;;;28.13;5.85;;;14.40;99.90;;;;;;5066467;28;20113;-63
2022/04/22 13:14:15;;;;;;;20.65;5.07;;;14.40;99.90;;;;;;5063985;28;20033;-63
2022/04/22 13:16:41;;;;;;;15.43;4.18;;;14.40;99.90;;;;;;5058307;28;20025;-63
2022/04/22 13:19:07;;;;;;;28.00;6.97;;;14.30;99.90;;;;;;5062519;28;20021;-63
2022/04/22 13:21:34;;;;;;;22.63;4.75;;;14.30;99.90;;;;;;5078672;28;20409;-63
2022/04/22 13:24:02;;;;;;;10.98;3.97;;;14.30;99.90;;;;;;5077326;28;20035;-63
2022/04/22 13:26:28;;;;;;;12.90;3.63;;;14.30;99.90;;;;;;5094866;28;20040;-63
2022/04/22 13:28:55;;;;;;;15.82;4.45;;;14.30;99.90;;;;;;5089911;28;20090;-63
2022/04/22 13:31:22;;;;;;;23.08;4.97;;;14.30;99.90;;;;;;5095137;28;20028;-63
2022/04/22 13:33:48;;;;;;;14.88;3.60;;;14.30;99.90;;;;;;5094686;28;20023;-63
2022/04/22 13:36:16;;;;;;;14.55;3.67;;;14.30;99.90;;;;;;5077823;28;20028;-63
2022/04/22 13:38:43;;;;;;;14.02;4.00;;;14.30;99.90;;;;;;5095941;28;20024;-63
2022/04/22 13:41:09;;;;;;;19.73;5.22;;;14.30;99.90;;;;;;5095633;28;20473;-63
2022/04/22 13:43:36;;;;;;;46.40;12.55;;;14.30;99.90;;;;;;5095768;28;20020;-64
2022/04/22 13:54:18;;;;;;;28.88;10.43;;;14.50;99.90;;;;;;5095806;28;20058;-62
2022/04/22 13:56:44;;;;;;;13.75;5.10;;;14.50;99.90;;;;;;5095702;28;20458;-63
2022/04/22 13:59:11;;;;;;;12.93;3.78;;;14.40;99.90;;;;;;5095807;28;20034;-63